Time;durP1;ratioP1;P1;durP2;ratioP2;P2;SDS_P1;SDS_P2;PMS_P1;PMS_P2;Temp;Humidity;BMP_temperature;BMP_pressure;BME280_temperature;BME280_humidity;BME280_pressure;Samples;Min_cycle;Max_cycle;Signal;HPM_P1;HPM_P2
2023/05/30 00:01:44;;;;;;;8.55;2.20;;;16.00;41.90;;;;;;4959529;28;20058;-87
2023/05/30 00:04:11;;;;;;;9.25;2.50;;;15.90;41.90;;;;;;4959253;28;20051;-87
2023/05/30 00:06:40;;;;;;;7.80;2.10;;;15.90;42.10;;;;;;4960418;28;20062;-87
2023/05/30 00:09:07;;;;;;;17.55;2.92;;;15.80;42.20;;;;;;4959327;28;20135;-89
2023/05/30 00:11:35;;;;;;;11.60;2.35;;;15.80;42.30;;;;;;4960125;28;20498;-89
2023/05/30 00:14:04;;;;;;;16.60;2.90;;;15.70;42.40;;;;;;4959477;28;20058;-87
2023/05/30 00:16:31;;;;;;;14.25;2.90;;;15.70;42.50;;;;;;4960265;28;20139;-87
2023/05/30 00:19:00;;;;;;;10.95;2.70;;;15.60;42.60;;;;;;4960278;28;20061;-87
2023/05/30 00:21:28;;;;;;;18.45;3.20;;;15.60;42.80;;;;;;4958136;28;20066;-86
2023/05/30 00:23:57;;;;;;;15.07;3.17;;;15.50;42.90;;;;;;4960008;28;20062;-89
2023/05/30 00:26:26;;;;;;;12.10;3.08;;;15.50;43.00;;;;;;4960425;28;20059;-86
2023/05/30 00:28:53;;;;;;;15.00;2.50;;;15.50;43.10;;;;;;4958092;28;20387;-87
2023/05/30 00:31:20;;;;;;;11.73;2.88;;;15.40;43.10;;;;;;4966730;28;20054;-86
2023/05/30 00:33:47;;;;;;;15.38;2.67;;;15.40;43.30;;;;;;4959102;28;20061;-87
2023/05/30 00:36:15;;;;;;;14.38;3.08;;;15.40;43.40;;;;;;4957876;28;20067;-86
2023/05/30 00:38:42;;;;;;;13.35;3.92;;;15.30;43.40;;;;;;4957899;28;20046;-86
2023/05/30 00:41:11;;;;;;;10.55;2.50;;;15.20;43.50;;;;;;4960132;28;20062;-87
2023/05/30 00:43:38;;;;;;;11.02;2.60;;;15.20;43.70;;;;;;4960309;28;20062;-88
2023/05/30 00:46:07;;;;;;;19.92;3.58;;;15.10;43.80;;;;;;4958899;28;20073;-87
2023/05/30 00:48:35;;;;;;;11.43;2.88;;;15.00;43.80;;;;;;4959230;28;20081;-86
2023/05/30 00:51:02;;;;;;;12.07;3.13;;;15.00;44.10;;;;;;4958056;28;20047;-86
2023/05/30 00:53:29;;;;;;;9.30;2.58;;;14.90;44.10;;;;;;4958627;28;20073;-87
2023/05/30 00:55:57;;;;;;;16.33;3.00;;;14.90;44.20;;;;;;4958153;28;20065;-88
2023/05/30 00:58:26;;;;;;;12.30;3.38;;;14.90;44.30;;;;;;4959168;28;20607;-86
2023/05/30 01:00:54;;;;;;;9.82;2.83;;;14.80;44.20;;;;;;4959614;28;20061;-85
2023/05/30 01:03:24;;;;;;;10.30;2.65;;;14.80;44.20;;;;;;4963256;28;20074;-88
2023/05/30 01:05:53;;;;;;;11.10;2.15;;;14.80;44.20;;;;;;4963595;28;20472;-87
2023/05/30 01:08:20;;;;;;;22.92;3.63;;;14.80;44.30;;;;;;4963330;28;20063;-88
2023/05/30 01:10:51;;;;;;;11.43;2.75;;;14.70;44.30;;;;;;4962515;28;20050;-86
2023/05/30 01:13:28;;;;;;;12.75;2.60;;;14.70;44.40;;;;;;4964587;28;20043;-87
2023/05/30 01:16:07;;;;;;;11.23;2.78;;;14.60;44.40;;;;;;4961963;28;20062;-87
2023/05/30 01:18:40;;;;;;;13.50;3.08;;;14.60;44.50;;;;;;4963286;28;20055;-87
2023/05/30 01:21:10;;;;;;;16.65;2.63;;;14.60;44.60;;;;;;4962950;28;20514;-87
2023/05/30 01:23:49;;;;;;;10.75;2.70;;;14.50;44.50;;;;;;4962792;28;20055;-87
2023/05/30 01:26:32;;;;;;;10.75;2.55;;;14.50;44.60;;;;;;4962107;28;20085;-87
2023/05/30 01:29:02;;;;;;;10.43;2.70;;;14.50;44.70;;;;;;4963983;28;20070;-87
2023/05/30 01:31:32;;;;;;;11.68;3.13;;;14.40;44.70;;;;;;4961892;28;20059;-86
2023/05/30 01:34:01;;;;;;;12.60;2.42;;;14.40;45.40;;;;;;4964237;28;20418;-87
2023/05/30 01:36:30;;;;;;;13.77;2.60;;;14.40;44.90;;;;;;4959683;28;20058;-87
2023/05/30 01:38:57;;;;;;;13.82;2.85;;;14.30;44.90;;;;;;4959712;28;20054;-86
2023/05/30 01:41:31;;;;;;;13.27;2.42;;;14.30;44.90;;;;;;4969227;28;20058;-87
2023/05/30 01:44:06;;;;;;;12.45;2.45;;;14.30;45.10;;;;;;4969973;28;20057;-88
2023/05/30 01:46:35;;;;;;;10.88;2.55;;;14.20;45.10;;;;;;4959731;28;20387;-88
2023/05/30 01:49:13;;;;;;;10.70;2.38;;;14.30;45.20;;;;;;4963652;28;20054;-87
2023/05/30 01:51:45;;;;;;;10.50;2.33;;;14.20;45.40;;;;;;4961245;28;20081;-88
2023/05/30 01:54:16;;;;;;;16.48;2.60;;;14.20;45.40;;;;;;4962263;28;20055;-88
2023/05/30 01:56:45;;;;;;;11.10;2.55;;;14.20;45.50;;;;;;4962845;28;20407;-87
2023/05/30 01:59:16;;;;;;;11.55;2.38;;;14.20;45.60;;;;;;4961493;28;20063;-88
2023/05/30 02:01:44;;;;;;;12.20;2.83;;;14.20;45.70;;;;;;4962808;28;20586;-88
2023/05/30 02:04:11;;;;;;;15.27;2.88;;;14.10;45.80;;;;;;4961086;28;20502;-86
2023/05/30 02:06:38;;;;;;;18.83;4.30;;;14.00;45.90;;;;;;4959862;28;20419;-86
2023/05/30 02:09:06;;;;;;;9.45;2.60;;;14.00;46.00;;;;;;4963247;28;20053;-86
2023/05/30 02:11:33;;;;;;;12.45;3.05;;;13.90;46.10;;;;;;4962316;28;20065;-86
2023/05/30 02:14:00;;;;;;;12.77;2.78;;;13.90;46.30;;;;;;4960849;28;20046;-86
2023/05/30 02:16:29;;;;;;;11.73;2.33;;;13.90;46.40;;;;;;4967343;28;20051;-87
2023/05/30 02:18:56;;;;;;;12.98;2.67;;;13.80;46.40;;;;;;4963266;28;20415;-87
2023/05/30 02:21:24;;;;;;;14.55;2.33;;;13.80;46.50;;;;;;4961718;28;20086;-86
2023/05/30 02:23:51;;;;;;;13.25;2.33;;;13.80;46.70;;;;;;4959984;28;20058;-87
2023/05/30 02:26:18;;;;;;;11.07;2.63;;;13.70;46.60;;;;;;4960768;28;20062;-86
2023/05/30 02:28:46;;;;;;;15.50;2.97;;;13.70;46.80;;;;;;4961718;28;20054;-87
2023/05/30 02:31:13;;;;;;;15.20;2.55;;;13.70;46.80;;;;;;4962859;28;20407;-86
2023/05/30 02:33:43;;;;;;;15.63;3.00;;;13.60;46.90;;;;;;4958377;28;20067;-87
2023/05/30 02:36:12;;;;;;;18.15;2.97;;;13.70;47.10;;;;;;4958146;28;20146;-91
2023/05/30 02:38:39;;;;;;;13.23;2.78;;;13.60;47.10;;;;;;4959495;28;20062;-87
2023/05/30 02:41:06;;;;;;;15.32;2.60;;;13.60;47.30;;;;;;4962037;28;20054;-87
2023/05/30 02:43:34;;;;;;;11.40;2.58;;;13.60;47.30;;;;;;4958642;28;20062;-87
2023/05/30 02:46:04;;;;;;;15.43;3.20;;;13.50;47.20;;;;;;4959431;28;20065;-88
2023/05/30 02:48:31;;;;;;;10.65;3.08;;;13.50;47.40;;;;;;4961026;28;20054;-86
2023/05/30 02:51:00;;;;;;;10.90;2.90;;;13.50;47.60;;;;;;4961007;28;20414;-86
2023/05/30 02:53:27;;;;;;;15.00;3.35;;;13.40;47.70;;;;;;4959604;28;20703;-87
2023/05/30 02:55:56;;;;;;;11.65;2.70;;;13.40;47.80;;;;;;4961787;28;20418;-86
2023/05/30 02:58:23;;;;;;;14.73;2.88;;;13.40;47.90;;;;;;4961336;28;21198;-85
2023/05/30 03:00:50;;;;;;;14.15;2.40;;;13.30;47.80;;;;;;4958453;28;20050;-86
2023/05/30 03:03:19;;;;;;;12.35;3.25;;;13.30;47.90;;;;;;4961959;28;20062;-87
2023/05/30 03:05:47;;;;;;;9.63;2.20;;;13.30;47.90;;;;;;4958813;28;21010;-87
2023/05/30 03:08:16;;;;;;;13.70;2.63;;;13.30;47.90;;;;;;4959518;28;20054;-91
2023/05/30 03:10:43;;;;;;;15.63;3.30;;;13.30;48.00;;;;;;4960027;28;20696;-88
2023/05/30 03:13:11;;;;;;;12.15;2.95;;;13.30;48.00;;;;;;4961481;28;20063;-88
2023/05/30 03:15:40;;;;;;;10.98;2.28;;;13.30;48.00;;;;;;4961557;28;20057;-85
2023/05/30 03:18:07;;;;;;;13.68;3.08;;;13.20;48.10;;;;;;4959117;28;20396;-86
2023/05/30 03:20:34;;;;;;;16.05;2.80;;;13.20;48.10;;;;;;4959350;28;20059;-88
2023/05/30 03:23:02;;;;;;;12.13;3.05;;;13.20;48.30;;;;;;4958947;28;20055;-87
2023/05/30 03:25:30;;;;;;;18.40;3.20;;;13.10;48.40;;;;;;4958626;28;20053;-88
2023/05/30 03:27:57;;;;;;;16.25;2.80;;;13.20;48.50;;;;;;4959862;28;20050;-87
2023/05/30 03:30:26;;;;;;;13.43;2.60;;;13.10;48.50;;;;;;4960855;28;20514;-88
2023/05/30 03:32:56;;;;;;;16.15;2.65;;;13.10;48.50;;;;;;4959222;28;20079;-88
2023/05/30 03:35:24;;;;;;;18.13;3.08;;;13.00;48.50;;;;;;4957784;28;20495;-87
2023/05/30 03:37:51;;;;;;;14.43;3.10;;;13.00;48.60;;;;;;4956375;28;20526;-86
2023/05/30 03:40:18;;;;;;;11.45;2.58;;;13.00;48.70;;;;;;4960809;28;20511;-87
2023/05/30 03:42:47;;;;;;;10.70;2.42;;;13.00;48.80;;;;;;4958521;28;20055;-86
2023/05/30 03:45:14;;;;;;;14.07;2.85;;;13.00;48.80;;;;;;4957415;28;20066;-88
2023/05/30 03:47:42;;;;;;;14.35;2.35;;;13.00;48.90;;;;;;4978087;28;20525;-87
2023/05/30 03:50:10;;;;;;;10.43;2.53;;;13.00;49.00;;;;;;4975726;28;20054;-87
2023/05/30 03:52:37;;;;;;;11.52;2.70;;;12.90;48.90;;;;;;4977611;28;20054;-85
2023/05/30 03:55:05;;;;;;;12.85;2.80;;;12.90;49.10;;;;;;4976512;28;20054;-87
2023/05/30 03:57:32;;;;;;;14.20;2.63;;;12.90;49.20;;;;;;4979277;28;20054;-87
2023/05/30 04:00:01;;;;;;;19.45;3.00;;;12.90;49.80;;;;;;4977760;28;21146;-87
2023/05/30 04:02:28;;;;;;;9.73;2.13;;;12.90;49.80;;;;;;4979156;28;20077;-86
2023/05/30 04:04:56;;;;;;;14.43;2.58;;;12.80;49.30;;;;;;4979548;28;20401;-86
2023/05/30 04:07:24;;;;;;;14.15;2.95;;;12.90;49.30;;;;;;4979623;28;20511;-87
2023/05/30 04:09:51;;;;;;;15.75;3.55;;;12.90;49.40;;;;;;4978838;28;20050;-86
2023/05/30 04:12:19;;;;;;;14.60;2.65;;;12.90;49.40;;;;;;4974883;28;20069;-86
2023/05/30 04:14:46;;;;;;;12.35;3.10;;;12.90;49.40;;;;;;4979440;28;20051;-86
2023/05/30 04:17:15;;;;;;;8.85;2.70;;;12.90;49.40;;;;;;4975384;28;20054;-86
2023/05/30 04:19:42;;;;;;;16.02;3.08;;;12.90;49.50;;;;;;4978485;28;20046;-86
2023/05/30 04:22:09;;;;;;;12.43;2.45;;;12.90;50.00;;;;;;4976930;28;20054;-86
2023/05/30 04:24:36;;;;;;;15.98;3.10;;;12.90;49.70;;;;;;4979345;28;20046;-86
2023/05/30 04:27:04;;;;;;;14.10;2.80;;;12.90;49.70;;;;;;4976806;28;20061;-86
2023/05/30 04:29:32;;;;;;;11.40;2.80;;;12.90;49.80;;;;;;4978458;28;20134;-85
2023/05/30 04:31:59;;;;;;;17.20;4.10;;;12.90;49.90;;;;;;4976470;28;20483;-88
2023/05/30 04:34:28;;;;;;;10.68;2.42;;;12.90;50.00;;;;;;4979388;28;20058;-86
2023/05/30 04:36:56;;;;;;;11.45;2.50;;;12.90;50.10;;;;;;4977336;28;20093;-88
2023/05/30 04:39:23;;;;;;;9.93;2.60;;;12.90;50.10;;;;;;4979400;28;20525;-87
2023/05/30 04:41:54;;;;;;;17.27;3.95;;;12.90;50.10;;;;;;4978362;28;20050;-88
2023/05/30 04:44:22;;;;;;;10.65;2.22;;;12.90;50.20;;;;;;4978246;28;20320;-87
2023/05/30 04:46:49;;;;;;;13.55;2.83;;;12.90;50.10;;;;;;4972906;28;20407;-85
2023/05/30 04:49:17;;;;;;;10.70;3.00;;;12.90;50.20;;;;;;4979257;28;20521;-86
2023/05/30 04:51:46;;;;;;;9.77;2.53;;;12.90;50.20;;;;;;4978425;28;20105;-87
2023/05/30 04:54:13;;;;;;;18.88;3.67;;;12.90;50.20;;;;;;4979341;28;20502;-90
2023/05/30 04:56:41;;;;;;;14.68;3.00;;;13.00;50.20;;;;;;4978969;28;20050;-86
2023/05/30 04:59:08;;;;;;;11.93;2.70;;;13.00;50.00;;;;;;4978453;28;20061;-85
2023/05/30 05:01:36;;;;;;;10.73;2.40;;;13.00;50.00;;;;;;4977401;28;20058;-86
2023/05/30 05:04:03;;;;;;;14.75;3.00;;;13.00;50.00;;;;;;4979272;28;20085;-86
2023/05/30 05:06:33;;;;;;;11.88;2.58;;;13.00;50.00;;;;;;4981676;28;20046;-87
2023/05/30 05:09:01;;;;;;;13.45;2.63;;;13.00;50.00;;;;;;4978769;28;20054;-87
2023/05/30 05:11:29;;;;;;;14.05;4.15;;;13.10;50.00;;;;;;4976604;28;20050;-88
2023/05/30 05:13:56;;;;;;;15.30;2.70;;;13.10;50.10;;;;;;4978121;28;20054;-88
2023/05/30 05:16:23;;;;;;;12.48;2.80;;;13.10;50.00;;;;;;4976828;28;20058;-90
2023/05/30 05:18:51;;;;;;;17.27;3.10;;;13.10;49.70;;;;;;4977387;28;20060;-86
2023/05/30 05:21:18;;;;;;;17.15;3.80;;;13.10;49.50;;;;;;4976338;28;20499;-86
2023/05/30 05:23:45;;;;;;;14.30;2.88;;;13.10;49.50;;;;;;4977107;28;20054;-87
2023/05/30 05:26:15;;;;;;;12.38;2.78;;;13.00;49.60;;;;;;4976355;28;20529;-86
2023/05/30 05:28:42;;;;;;;14.93;3.15;;;13.00;49.90;;;;;;4974833;28;20054;-87
2023/05/30 05:31:09;;;;;;;10.20;2.67;;;13.00;49.90;;;;;;4978075;28;20054;-86
2023/05/30 05:33:37;;;;;;;9.50;2.30;;;13.00;50.20;;;;;;4978088;28;20509;-86
2023/05/30 05:36:04;;;;;;;14.27;2.90;;;13.00;50.50;;;;;;4975931;28;20054;-87
2023/05/30 05:38:31;;;;;;;15.93;3.85;;;13.00;50.30;;;;;;4978256;28;20458;-87
2023/05/30 05:40:59;;;;;;;18.50;3.72;;;13.10;50.30;;;;;;4977133;28;20057;-87
2023/05/30 05:43:27;;;;;;;22.98;3.70;;;13.10;50.10;;;;;;4978322;28;20054;-88
2023/05/30 05:45:55;;;;;;;17.20;3.42;;;13.10;50.30;;;;;;4978935;28;20054;-88
2023/05/30 05:48:23;;;;;;;16.33;3.25;;;13.10;49.80;;;;;;4980116;28;20426;-88
2023/05/30 05:50:51;;;;;;;19.08;3.60;;;13.10;49.60;;;;;;4979939;28;20057;-87
2023/05/30 05:53:18;;;;;;;16.77;3.20;;;13.10;49.70;;;;;;4978581;28;20070;-88
2023/05/30 05:55:45;;;;;;;9.88;2.92;;;13.10;50.00;;;;;;4981346;28;20513;-87
2023/05/30 05:58:12;;;;;;;17.90;3.17;;;13.20;50.20;;;;;;4981300;28;20065;-89
2023/05/30 06:00:41;;;;;;;13.82;2.83;;;13.20;49.90;;;;;;4980182;28;20050;-88
2023/05/30 06:03:09;;;;;;;11.88;3.13;;;13.20;49.70;;;;;;4976800;28;20516;-88
2023/05/30 06:05:36;;;;;;;13.68;3.78;;;13.30;49.80;;;;;;4983151;28;20052;-90
2023/05/30 06:08:04;;;;;;;15.40;3.22;;;13.30;49.80;;;;;;4980157;28;20054;-88
2023/05/30 06:10:31;;;;;;;14.80;3.15;;;13.40;49.80;;;;;;4979975;28;20057;-88
2023/05/30 06:12:59;;;;;;;19.77;3.65;;;13.40;50.10;;;;;;4981809;28;20486;-89
2023/05/30 06:15:26;;;;;;;19.33;3.28;;;13.40;50.00;;;;;;4981603;28;20062;-89
2023/05/30 06:17:55;;;;;;;16.67;3.67;;;13.40;49.60;;;;;;4980604;28;20062;-88
2023/05/30 06:20:22;;;;;;;22.77;3.08;;;13.50;49.50;;;;;;4982238;28;20058;-89
2023/05/30 06:22:50;;;;;;;13.23;2.70;;;13.50;49.60;;;;;;4979310;28;20050;-89
2023/05/30 06:25:17;;;;;;;15.40;2.80;;;13.60;49.90;;;;;;4980546;28;20403;-88
2023/05/30 06:27:44;;;;;;;22.23;3.10;;;13.70;49.00;;;;;;4980695;28;20065;-88
2023/05/30 06:30:12;;;;;;;20.73;3.25;;;13.70;48.90;;;;;;4981494;28;20057;-88
2023/05/30 06:32:40;;;;;;;15.15;3.15;;;13.70;49.00;;;;;;4976436;28;20050;-88
2023/05/30 06:35:09;;;;;;;13.40;2.78;;;13.80;49.10;;;;;;4980440;28;20053;-86
2023/05/30 06:37:36;;;;;;;11.63;2.40;;;13.80;49.20;;;;;;4976732;28;20057;-90
2023/05/30 06:40:04;;;;;;;11.85;2.65;;;13.90;48.90;;;;;;4980990;28;20403;-88
2023/05/30 06:42:33;;;;;;;10.82;2.63;;;13.90;48.90;;;;;;4978458;28;20430;-88
2023/05/30 06:45:00;;;;;;;13.20;3.05;;;13.90;48.80;;;;;;4978454;28;20091;-88
2023/05/30 06:47:28;;;;;;;14.50;3.35;;;14.00;48.90;;;;;;4980864;28;20050;-87
2023/05/30 06:49:55;;;;;;;13.38;2.72;;;14.00;48.80;;;;;;4980022;28;20054;-87
2023/05/30 06:52:23;;;;;;;12.38;3.00;;;14.10;49.10;;;;;;4980940;28;20061;-89
2023/05/30 06:54:51;;;;;;;16.25;3.30;;;14.20;49.20;;;;;;4981044;28;20520;-88
2023/05/30 06:57:18;;;;;;;12.00;2.90;;;14.20;49.30;;;;;;4978457;28;20050;-87
2023/05/30 06:59:46;;;;;;;17.40;3.35;;;14.20;49.30;;;;;;4976089;28;20058;-88
2023/05/30 07:02:13;;;;;;;13.20;2.45;;;14.30;49.20;;;;;;4978791;28;20058;-88
2023/05/30 07:04:40;;;;;;;14.68;3.22;;;14.40;49.20;;;;;;4980904;28;20062;-88
2023/05/30 07:07:08;;;;;;;13.48;3.60;;;14.50;48.90;;;;;;4977560;28;20050;-87
2023/05/30 07:09:37;;;;;;;14.23;3.22;;;14.50;49.50;;;;;;4981654;28;20494;-89
2023/05/30 07:12:05;;;;;;;12.77;3.22;;;14.60;48.70;;;;;;4978454;28;20058;-89
2023/05/30 07:14:32;;;;;;;20.20;3.08;;;14.60;48.50;;;;;;4979185;28;20058;-89
2023/05/30 07:17:00;;;;;;;15.07;3.40;;;14.60;48.60;;;;;;4980011;28;20517;-87
2023/05/30 07:19:30;;;;;;;14.23;3.22;;;14.70;48.40;;;;;;4978060;28;20073;-87
2023/05/30 07:21:57;;;;;;;20.23;3.45;;;14.70;48.70;;;;;;4978089;28;20054;-92
2023/05/30 07:24:25;;;;;;;22.88;4.03;;;14.80;48.60;;;;;;4980249;28;20057;-88
2023/05/30 07:26:54;;;;;;;19.38;3.42;;;14.80;48.40;;;;;;4979538;28;20490;-89
2023/05/30 07:29:21;;;;;;;22.02;4.05;;;14.80;48.50;;;;;;4978396;28;20065;-86
2023/05/30 07:31:48;;;;;;;18.88;4.00;;;14.90;48.70;;;;;;4977969;28;22080;-87
2023/05/30 07:34:16;;;;;;;13.70;3.65;;;14.90;48.70;;;;;;4978012;28;20495;-89
2023/05/30 07:36:45;;;;;;;13.32;2.70;;;15.00;48.50;;;;;;4975731;28;20596;-91
2023/05/30 07:39:14;;;;;;;13.80;2.72;;;15.00;48.40;;;;;;4979574;28;20061;-90
2023/05/30 07:41:42;;;;;;;13.77;3.95;;;15.00;48.60;;;;;;4979966;28;20066;-90
2023/05/30 07:44:19;;;;;;;20.27;3.60;;;15.10;48.70;;;;;;4975373;28;20073;-88
2023/05/30 07:46:48;;;;;;;26.63;4.07;;;15.20;48.90;;;;;;4976632;28;20057;-89
2023/05/30 07:49:20;;;;;;;15.20;2.90;;;15.30;49.00;;;;;;4979776;28;20054;-90
2023/05/30 07:51:50;;;;;;;18.20;3.30;;;15.30;48.90;;;;;;4975549;28;20056;-87
2023/05/30 07:54:19;;;;;;;13.40;3.10;;;15.30;48.80;;;;;;4975838;28;20054;-90
2023/05/30 07:56:54;;;;;;;17.45;4.07;;;15.40;48.70;;;;;;4978998;28;20061;-88
2023/05/30 07:59:25;;;;;;;21.10;4.25;;;15.50;48.70;;;;;;4980097;28;20054;-87
2023/05/30 08:01:53;;;;;;;19.70;3.72;;;15.50;48.90;;;;;;4977191;28;20054;-89
2023/05/30 08:04:20;;;;;;;21.42;3.75;;;15.60;48.70;;;;;;4980084;28;20058;-88
2023/05/30 08:06:48;;;;;;;24.13;4.32;;;15.70;48.70;;;;;;4977236;28;20065;-88
2023/05/30 08:09:15;;;;;;;18.17;4.25;;;15.70;48.60;;;;;;4976655;28;20055;-88
2023/05/30 08:11:42;;;;;;;26.73;4.40;;;15.80;48.70;;;;;;4969617;28;20050;-89
2023/05/30 08:14:10;;;;;;;17.08;3.67;;;15.80;48.70;;;;;;4977825;28;20426;-89
2023/05/30 08:16:39;;;;;;;17.38;4.00;;;15.90;48.30;;;;;;4973879;28;20913;-87
2023/05/30 08:19:06;;;;;;;17.05;3.53;;;15.90;48.40;;;;;;4975452;28;20506;-88
2023/05/30 08:21:37;;;;;;;16.15;3.55;;;16.00;48.40;;;;;;4976926;28;20054;-88
2023/05/30 08:24:04;;;;;;;20.60;3.67;;;16.10;48.30;;;;;;4978027;28;20057;-88
2023/05/30 08:26:31;;;;;;;18.58;4.75;;;16.10;48.70;;;;;;4977763;28;20114;-90
2023/05/30 08:28:59;;;;;;;17.85;4.43;;;16.10;48.70;;;;;;4977716;28;20050;-89
2023/05/30 08:31:27;;;;;;;20.20;4.82;;;16.20;48.50;;;;;;4975938;28;20271;-88
2023/05/30 08:33:55;;;;;;;14.98;3.40;;;16.20;48.00;;;;;;4977577;28;20510;-88
2023/05/30 08:36:23;;;;;;;17.20;3.63;;;16.30;48.30;;;;;;4977705;28;20089;-88
2023/05/30 08:38:54;;;;;;;17.17;4.32;;;16.40;48.60;;;;;;4979135;28;20077;-89
2023/05/30 08:41:21;;;;;;;16.38;3.83;;;16.40;48.30;;;;;;4977220;28;20053;-88
2023/05/30 08:43:50;;;;;;;19.88;4.22;;;16.50;48.50;;;;;;4978193;28;20061;-88
2023/05/30 08:46:18;;;;;;;19.65;3.90;;;16.60;48.30;;;;;;4974232;28;20383;-88
2023/05/30 08:48:46;;;;;;;19.27;4.38;;;16.70;48.50;;;;;;4974823;28;20378;-89
2023/05/30 08:51:16;;;;;;;15.38;3.70;;;16.80;48.70;;;;;;4975648;28;20057;-88
2023/05/30 08:53:48;;;;;;;17.45;4.80;;;16.80;48.80;;;;;;4977329;28;20157;-88
2023/05/30 08:56:21;;;;;;;18.65;3.70;;;16.90;48.10;;;;;;4980813;28;20061;-88
2023/05/30 08:58:50;;;;;;;16.88;3.95;;;17.00;48.30;;;;;;4979032;28;20054;-89
2023/05/30 09:01:18;;;;;;;16.60;4.25;;;17.10;48.00;;;;;;4976615;28;20597;-89
2023/05/30 09:03:47;;;;;;;20.25;5.13;;;17.20;48.30;;;;;;4979504;28;20062;-90
2023/05/30 09:06:18;;;;;;;18.60;5.03;;;17.20;48.20;;;;;;4976564;28;20388;-88
2023/05/30 09:08:47;;;;;;;20.23;4.07;;;17.40;47.80;;;;;;4975795;28;20054;-88
2023/05/30 09:11:15;;;;;;;19.27;4.13;;;17.40;47.30;;;;;;4978096;28;20473;-88
2023/05/30 09:13:43;;;;;;;19.25;4.47;;;17.50;47.40;;;;;;4976259;28;20402;-87
2023/05/30 09:16:10;;;;;;;16.35;3.88;;;17.50;46.90;;;;;;4978106;28;20062;-88
2023/05/30 09:18:38;;;;;;;17.52;3.88;;;17.60;47.20;;;;;;4976074;28;20046;-88
2023/05/30 09:21:05;;;;;;;30.95;5.30;;;17.60;47.00;;;;;;4977207;28;20050;-89
2023/05/30 09:23:36;;;;;;;15.05;3.65;;;17.60;47.10;;;;;;4978687;28;20065;-88
2023/05/30 09:26:07;;;;;;;19.98;5.05;;;17.80;46.80;;;;;;4981393;28;20081;-88
2023/05/30 09:28:36;;;;;;;16.42;4.20;;;17.80;46.60;;;;;;4982212;28;20863;-89
2023/05/30 09:31:04;;;;;;;17.48;4.05;;;17.90;46.60;;;;;;4983050;28;20050;-90
2023/05/30 09:33:44;;;;;;;18.35;4.90;;;17.90;46.70;;;;;;4979892;28;20054;-89
2023/05/30 09:36:18;;;;;;;19.33;5.32;;;17.90;47.10;;;;;;4976379;28;20054;-89
2023/05/30 09:38:57;;;;;;;15.15;4.50;;;18.00;47.10;;;;;;4980592;28;20050;-90
2023/05/30 09:41:25;;;;;;;19.15;4.32;;;18.10;46.80;;;;;;4978181;28;20061;-88
2023/05/30 09:43:53;;;;;;;15.85;3.65;;;18.20;46.80;;;;;;4981452;28;20050;-89
2023/05/30 09:46:22;;;;;;;21.40;4.85;;;18.20;46.60;;;;;;4976805;28;20054;-89
2023/05/30 09:48:49;;;;;;;19.50;4.53;;;18.30;46.80;;;;;;4981349;28;20050;-89
2023/05/30 09:51:18;;;;;;;13.68;4.40;;;18.40;46.10;;;;;;4981129;28;20065;-88
2023/05/30 09:54:00;;;;;;;15.00;4.03;;;18.40;46.50;;;;;;4983103;28;20487;-88
2023/05/30 09:56:37;;;;;;;17.00;4.05;;;18.50;47.20;;;;;;4983860;28;20058;-90
2023/05/30 09:59:07;;;;;;;18.73;4.65;;;18.60;46.50;;;;;;4981215;28;20054;-89
2023/05/30 10:01:39;;;;;;;16.98;4.38;;;18.70;46.40;;;;;;4983593;28;21129;-89
2023/05/30 10:04:14;;;;;;;14.25;4.05;;;18.70;46.30;;;;;;4982638;28;20054;-88
2023/05/30 10:06:43;;;;;;;16.25;4.65;;;18.80;46.80;;;;;;4981778;28;20054;-88
2023/05/30 10:09:13;;;;;;;16.33;4.75;;;18.90;46.90;;;;;;4982970;28;20057;-88
2023/05/30 10:11:42;;;;;;;14.63;3.95;;;19.00;46.50;;;;;;4983244;28;20510;-89
2023/05/30 10:14:11;;;;;;;18.33;3.88;;;19.10;46.30;;;;;;4982248;28;20065;-89
2023/05/30 10:16:45;;;;;;;19.20;4.60;;;19.20;45.50;;;;;;4983162;28;20065;-88
2023/05/30 10:19:15;;;;;;;20.17;5.05;;;19.30;45.20;;;;;;4983067;28;20050;-86
2023/05/30 10:21:45;;;;;;;20.38;4.45;;;19.40;44.30;;;;;;4976811;28;20054;-87
2023/05/30 10:24:16;;;;;;;15.27;4.28;;;19.40;44.00;;;;;;4983310;28;20054;-88
2023/05/30 10:26:48;;;;;;;13.70;4.10;;;19.40;44.60;;;;;;4982291;28;20054;-89
2023/05/30 10:29:17;;;;;;;17.35;4.10;;;19.50;44.60;;;;;;4979927;28;20073;-88
2023/05/30 10:31:45;;;;;;;15.45;4.05;;;19.60;44.90;;;;;;4985057;28;20061;-88
2023/05/30 10:34:14;;;;;;;22.05;4.68;;;19.60;44.50;;;;;;4989569;28;20062;-88
2023/05/30 10:36:44;;;;;;;20.48;5.03;;;19.70;44.70;;;;;;4979454;28;20054;-91
2023/05/30 10:39:31;;;;;;;18.88;4.50;;;19.70;44.50;;;;;;4982741;28;20054;-88
2023/05/30 10:42:05;;;;;;;21.63;4.15;;;19.80;43.80;;;;;;4983213;28;20058;-88
2023/05/30 10:44:42;;;;;;;13.88;3.60;;;19.90;43.80;;;;;;4981970;28;20055;-89
2023/05/30 10:47:23;;;;;;;19.08;4.78;;;19.90;43.70;;;;;;4975281;28;20069;-87
2023/05/30 10:49:55;;;;;;;15.60;4.45;;;20.00;43.10;;;;;;4981768;28;20483;-86
2023/05/30 10:52:31;;;;;;;11.57;3.60;;;20.10;43.20;;;;;;4978926;28;20058;-88
2023/05/30 10:55:00;;;;;;;13.52;3.42;;;20.10;43.60;;;;;;4983151;28;20062;-89
2023/05/30 10:57:31;;;;;;;12.55;3.38;;;20.20;43.90;;;;;;4983548;28;20065;-89
2023/05/30 11:00:08;;;;;;;17.90;3.70;;;20.30;44.20;;;;;;4976692;28;20414;-89
2023/05/30 11:02:36;;;;;;;18.15;4.18;;;20.30;42.90;;;;;;4981787;28;20061;-89
2023/05/30 11:05:08;;;;;;;18.58;4.68;;;20.40;42.30;;;;;;4982037;28;20061;-89
2023/05/30 11:07:38;;;;;;;14.48;3.72;;;20.50;42.60;;;;;;4979886;28;20053;-88
2023/05/30 11:10:10;;;;;;;13.65;3.72;;;20.50;42.40;;;;;;4981644;28;20054;-89
2023/05/30 11:12:43;;;;;;;16.85;3.97;;;20.60;42.00;;;;;;4982597;28;20054;-90
2023/05/30 11:15:15;;;;;;;13.93;3.55;;;20.60;42.00;;;;;;4982298;28;20050;-89
2023/05/30 11:17:43;;;;;;;19.02;4.28;;;20.70;42.00;;;;;;4982568;28;20365;-89
2023/05/30 11:20:14;;;;;;;13.30;3.97;;;20.70;42.20;;;;;;4982202;28;20065;-89
2023/05/30 11:22:42;;;;;;;18.50;4.38;;;20.80;41.80;;;;;;4980935;28;20061;-88
2023/05/30 11:25:23;;;;;;;15.02;3.38;;;20.80;42.30;;;;;;4982323;28;20061;-88
2023/05/30 11:28:14;;;;;;;16.63;4.03;;;20.90;43.00;;;;;;4979360;28;20053;-90
2023/05/30 11:30:46;;;;;;;17.27;3.80;;;20.90;41.30;;;;;;4977853;28;20061;-89
2023/05/30 11:33:14;;;;;;;22.20;4.88;;;21.00;41.10;;;;;;4981360;28;20062;-88
2023/05/30 11:35:44;;;;;;;17.50;4.07;;;21.00;41.70;;;;;;4981664;28;20055;-88
2023/05/30 11:38:16;;;;;;;14.60;3.72;;;21.10;41.00;;;;;;4978532;28;20050;-88
2023/05/30 11:40:45;;;;;;;15.25;4.68;;;21.10;41.70;;;;;;4975885;28;20154;-89
2023/05/30 11:43:15;;;;;;;16.00;4.18;;;21.10;41.60;;;;;;4980914;28;20054;-88
2023/05/30 11:45:44;;;;;;;17.27;4.28;;;21.20;41.90;;;;;;4980758;28;20053;-91
2023/05/30 11:48:12;;;;;;;15.10;4.13;;;21.30;40.70;;;;;;4979881;28;20065;-90
2023/05/30 11:50:40;;;;;;;12.43;3.58;;;21.30;41.20;;;;;;4982223;28;20069;-88
2023/05/30 11:53:12;;;;;;;15.93;3.63;;;21.40;40.40;;;;;;4978808;28;20054;-90
2023/05/30 11:55:39;;;;;;;17.42;3.67;;;21.40;39.80;;;;;;4981387;28;20065;-90
2023/05/30 11:58:08;;;;;;;10.50;3.30;;;21.40;39.00;;;;;;4979086;28;20053;-89
2023/05/30 12:00:36;;;;;;;13.52;3.75;;;21.50;39.80;;;;;;4981907;28;20053;-86
2023/05/30 12:03:03;;;;;;;18.02;4.07;;;21.50;39.80;;;;;;4980161;28;20046;-91
2023/05/30 12:05:31;;;;;;;19.00;4.20;;;21.60;39.00;;;;;;4979150;28;20050;-90
2023/05/30 12:08:04;;;;;;;9.57;3.47;;;21.60;38.60;;;;;;4978357;28;20549;-88
2023/05/30 12:10:31;;;;;;;14.65;3.75;;;21.70;39.10;;;;;;4979534;28;20487;-87
2023/05/30 12:13:00;;;;;;;17.42;4.00;;;21.70;39.20;;;;;;4981597;28;20054;-88
2023/05/30 12:15:29;;;;;;;17.25;3.97;;;21.70;39.60;;;;;;4978763;28;20076;-87
2023/05/30 12:17:56;;;;;;;14.25;3.63;;;21.70;40.10;;;;;;4981100;28;20054;-88
2023/05/30 12:20:24;;;;;;;16.42;3.25;;;21.80;39.70;;;;;;4982134;28;20058;-88
2023/05/30 12:22:52;;;;;;;12.10;3.97;;;21.80;40.30;;;;;;4980593;28;20426;-89
2023/05/30 12:25:26;;;;;;;12.75;3.92;;;21.90;39.80;;;;;;4979743;28;20296;-89
2023/05/30 12:27:57;;;;;;;18.00;4.05;;;21.90;39.20;;;;;;4978940;28;20054;-89
2023/05/30 12:30:24;;;;;;;13.38;3.47;;;22.00;39.10;;;;;;4981761;28;20054;-87
2023/05/30 12:32:54;;;;;;;14.75;3.50;;;22.00;38.10;;;;;;4980223;28;20062;-89
2023/05/30 12:35:26;;;;;;;10.40;3.15;;;22.10;37.60;;;;;;4981423;28;20470;-89
2023/05/30 12:37:56;;;;;;;15.68;3.72;;;22.10;37.60;;;;;;4978832;28;20061;-89
2023/05/30 12:40:26;;;;;;;15.40;4.32;;;22.20;37.80;;;;;;4980656;28;20057;-88
2023/05/30 12:42:57;;;;;;;14.00;3.58;;;22.30;38.20;;;;;;4981556;28;20173;-87
2023/05/30 12:45:24;;;;;;;13.02;4.00;;;22.20;38.00;;;;;;4981171;28;20058;-87
2023/05/30 12:47:53;;;;;;;18.48;4.40;;;22.20;39.10;;;;;;4979189;28;20459;-88